createdAt,value
2022-09-04T00:00:12.477Z,21.30
2022-09-04T00:02:57.361Z,21.40
2022-09-04T00:05:29.723Z,21.39
2022-09-04T00:08:15.817Z,21.35
2022-09-04T00:10:50.642Z,21.34
2022-09-04T00:13:22.472Z,21.29
2022-09-04T00:15:57.031Z,21.33
2022-09-04T00:18:31.871Z,21.34
2022-09-04T00:21:07.501Z,21.32
2022-09-04T00:23:42.881Z,21.31
2022-09-04T00:26:20.915Z,21.30
2022-09-04T00:28:51.785Z,21.29
2022-09-04T00:31:29.028Z,21.26
2022-09-04T00:34:07.329Z,21.28
2022-09-04T00:36:39.978Z,21.28
2022-09-04T00:39:15.121Z,21.20
2022-09-04T00:42:00.807Z,21.27
2022-09-04T00:44:42.700Z,21.26
2022-09-04T00:47:27.002Z,21.20
2022-09-04T00:50:20.263Z,21.20
2022-09-04T00:53:02.632Z,21.18
2022-09-04T00:55:57.820Z,21.14
2022-09-04T00:58:40.596Z,21.14
2022-09-04T01:01:15.054Z,21.13
2022-09-04T01:04:02.270Z,21.11
2022-09-04T01:06:36.988Z,21.02
2022-09-04T01:09:32.099Z,21.11
2022-09-04T01:12:13.704Z,21.11
2022-09-04T01:14:49.107Z,21.07
2022-09-04T01:17:29.214Z,21.04
2022-09-04T01:20:04.654Z,21.04
2022-09-04T01:22:55.347Z,21.04
2022-09-04T01:25:53.839Z,21.03
2022-09-04T01:28:29.172Z,20.99
2022-09-04T01:31:05.262Z,20.98
2022-09-04T01:33:43.623Z,21.00
2022-09-04T01:36:20.750Z,20.98
2022-09-04T01:38:53.464Z,20.96
2022-09-04T01:41:28.612Z,20.94
2022-09-04T01:43:56.711Z,20.95
2022-09-04T01:46:52.450Z,20.95
2022-09-04T01:49:29.516Z,20.96
2022-09-04T01:52:07.213Z,20.93
2022-09-04T01:54:49.934Z,20.91
2022-09-04T01:57:32.879Z,20.89
2022-09-04T02:00:08.137Z,20.88
2022-09-04T02:02:52.913Z,20.87
2022-09-04T02:05:26.727Z,20.84
2022-09-04T02:08:06.244Z,20.82
2022-09-04T02:10:39.533Z,20.81
2022-09-04T02:13:17.715Z,20.86
2022-09-04T02:15:56.366Z,20.74
2022-09-04T02:18:36.086Z,20.79
2022-09-04T02:21:09.963Z,20.79
2022-09-04T02:23:46.392Z,20.77
2022-09-04T02:26:19.291Z,20.63
2022-09-04T02:29:01.081Z,20.74
2022-09-04T02:31:38.815Z,20.73
2022-09-04T02:34:10.757Z,20.71
2022-09-04T02:36:49.892Z,20.70
2022-09-04T02:39:33.484Z,20.70
2022-09-04T02:42:11.968Z,20.63
2022-09-04T02:44:47.784Z,20.67
2022-09-04T02:47:24.299Z,20.67
2022-09-04T02:50:02.845Z,20.61
2022-09-04T02:52:53.026Z,20.60
2022-09-04T02:55:39.910Z,20.65
2022-09-04T02:58:18.009Z,20.64
2022-09-04T03:00:55.778Z,20.53
2022-09-04T03:03:31.866Z,20.63
2022-09-04T03:06:05.622Z,20.62
2022-09-04T03:08:38.781Z,20.60
2022-09-04T03:11:16.831Z,20.58
2022-09-04T03:13:51.486Z,20.60
2022-09-04T03:16:28.024Z,20.57
2022-09-04T03:19:09.860Z,20.57
2022-09-04T03:21:44.563Z,20.56
2022-09-04T03:24:18.492Z,20.55
2022-09-04T03:26:50.780Z,20.53
2022-09-04T03:29:27.926Z,20.52
2022-09-04T03:32:16.052Z,20.53
2022-09-04T03:34:53.265Z,20.46
2022-09-04T03:37:38.505Z,20.50
2022-09-04T03:40:20.713Z,20.50
2022-09-04T03:43:02.083Z,20.47
2022-09-04T03:45:38.783Z,20.33
2022-09-04T03:48:20.405Z,20.41
2022-09-04T03:50:56.546Z,20.39
2022-09-04T03:53:31.326Z,20.39
2022-09-04T03:56:24.167Z,20.17
2022-09-04T03:59:03.103Z,20.34
2022-09-04T04:01:42.210Z,20.34
2022-09-04T04:04:37.491Z,20.29
2022-09-04T04:07:13.851Z,20.28
2022-09-04T04:09:53.842Z,20.26
2022-09-04T04:12:42.679Z,20.28
2022-09-04T04:15:31.983Z,20.24
2022-09-04T04:18:17.415Z,20.21
2022-09-04T04:20:57.011Z,20.21
2022-09-04T04:23:57.945Z,20.13
2022-09-04T04:26:40.628Z,20.16
2022-09-04T04:29:37.980Z,20.16
2022-09-04T04:32:24.277Z,20.07
2022-09-04T04:35:11.515Z,20.06
2022-09-04T04:37:51.691Z,20.06
2022-09-04T04:40:33.512Z,20.06
2022-09-04T04:43:14.836Z,20.07
2022-09-04T04:45:50.647Z,20.08
2022-09-04T04:49:07.874Z,20.08
2022-09-04T04:51:51.061Z,20.08
2022-09-04T04:54:35.792Z,20.09
2022-09-04T04:57:14.033Z,20.08
2022-09-04T04:59:49.594Z,20.05
2022-09-04T05:02:25.410Z,20.03
2022-09-04T05:05:02.323Z,20.05
2022-09-04T05:07:37.753Z,20.03
2022-09-04T05:10:19.576Z,20.04
2022-09-04T05:12:57.046Z,20.05
2022-09-04T05:15:31.255Z,20.02
2022-09-04T05:18:04.632Z,20.05
2022-09-04T05:20:43.755Z,20.05
2022-09-04T05:23:24.908Z,19.97
2022-09-04T05:26:07.529Z,20.05
2022-09-04T05:28:46.503Z,20.06
2022-09-04T05:31:23.291Z,20.06
2022-09-04T05:33:59.286Z,20.09
2022-09-04T05:36:37.673Z,19.97
2022-09-04T05:39:14.431Z,20.09
2022-09-04T05:42:04.481Z,20.07
2022-09-04T05:44:49.924Z,20.12
2022-09-04T05:47:30.807Z,20.13
2022-09-04T05:50:22.895Z,20.16
2022-09-04T05:53:14.093Z,20.14
2022-09-04T05:56:07.867Z,20.20
2022-09-04T05:59:02.617Z,20.11
2022-09-04T06:01:53.659Z,20.18
2022-09-04T06:04:57.003Z,20.22
2022-09-04T06:07:31.308Z,20.19
2022-09-04T06:10:04.414Z,20.24
2022-09-04T06:13:26.418Z,20.26
2022-09-04T06:16:13.807Z,20.28
2022-09-04T06:18:57.375Z,20.30
2022-09-04T06:21:55.352Z,20.33
2022-09-04T06:24:42.479Z,20.34
2022-09-04T06:27:34.529Z,20.38
2022-09-04T06:30:07.355Z,20.33
2022-09-04T06:32:53.399Z,20.38
2022-09-04T06:35:52.959Z,20.32
2022-09-04T06:38:37.541Z,20.40
2022-09-04T06:41:23.619Z,20.48
2022-09-04T06:44:01.112Z,20.50
2022-09-04T06:46:35.514Z,20.50
2022-09-04T06:49:13.220Z,20.52
2022-09-04T06:52:14.347Z,20.56
2022-09-04T06:54:58.462Z,20.57
2022-09-04T06:58:08.626Z,20.62
2022-09-04T07:00:43.241Z,20.62
2022-09-04T07:03:37.759Z,20.67
2022-09-04T07:06:25.572Z,20.69
2022-09-04T07:09:08.214Z,20.74
2022-09-04T07:11:55.098Z,20.72
2022-09-04T07:14:49.448Z,20.77
2022-09-04T07:17:24.623Z,20.79
2022-09-04T07:20:20.511Z,20.74
2022-09-04T07:23:23.783Z,20.78
2022-09-04T07:26:08.663Z,20.86
2022-09-04T07:28:54.853Z,20.93
2022-09-04T07:31:32.193Z,20.94
2022-09-04T07:34:10.239Z,20.99
2022-09-04T07:36:43.593Z,21.03
2022-09-04T07:39:21.719Z,20.95
2022-09-04T07:41:57.447Z,21.10
2022-09-04T07:44:33.035Z,21.08
2022-09-04T07:47:14.192Z,20.68
2022-09-04T07:49:53.786Z,21.11
2022-09-04T07:52:39.341Z,21.10
2022-09-04T07:55:17.887Z,21.14
2022-09-04T07:58:04.320Z,21.14
2022-09-04T08:00:40.570Z,21.25
2022-09-04T08:03:30.604Z,21.27
2022-09-04T08:06:05.974Z,21.35
2022-09-04T08:09:05.084Z,21.42
2022-09-04T08:11:55.014Z,21.47
2022-09-04T08:14:52.201Z,21.44
2022-09-04T08:17:43.061Z,21.50
2022-09-04T08:20:28.950Z,21.54
2022-09-04T08:23:04.496Z,21.58
2022-09-04T08:25:51.929Z,21.48
2022-09-04T08:28:38.929Z,21.58
2022-09-04T08:31:18.169Z,21.58
2022-09-04T08:34:07.542Z,21.68
2022-09-04T08:36:49.248Z,21.64
2022-09-04T08:39:29.093Z,21.74
2022-09-04T08:42:28.729Z,21.80
2022-09-04T08:45:44.488Z,21.62
2022-09-04T08:48:53.722Z,21.84
2022-09-04T08:52:03.209Z,21.87
2022-09-04T08:54:55.139Z,21.93
2022-09-04T08:57:53.298Z,22.00
2022-09-04T09:00:23.782Z,21.95
2022-09-04T09:03:36.138Z,21.99
2022-09-04T09:06:48.165Z,22.04
2022-09-04T09:09:50.643Z,22.07
2022-09-04T09:12:56.031Z,22.19
2022-09-04T09:15:43.150Z,22.18
2022-09-04T09:18:31.353Z,22.20
2022-09-04T09:21:08.193Z,22.23
2022-09-04T09:24:10.025Z,22.31
2022-09-04T09:26:52.451Z,22.32
2022-09-04T09:29:57.383Z,22.37
2022-09-04T09:33:01.576Z,22.44
2022-09-04T09:36:06.819Z,22.45
2022-09-04T09:39:02.690Z,22.52
2022-09-04T09:42:13.896Z,22.53
2022-09-04T09:45:12.827Z,22.66
2022-09-04T09:48:25.759Z,22.66
2022-09-04T09:51:13.914Z,22.73
2022-09-04T09:54:20.227Z,22.80
2022-09-04T09:57:33.435Z,22.88
2022-09-04T10:00:21.190Z,22.91
2022-09-04T10:03:26.470Z,22.99
2022-09-04T10:06:24.422Z,23.21
2022-09-04T10:09:18.519Z,23.34
2022-09-04T10:12:26.188Z,23.34
2022-09-04T10:15:35.289Z,23.58
2022-09-04T10:18:28.413Z,24.04
2022-09-04T10:21:26.526Z,24.40
2022-09-04T10:24:07.126Z,24.73
2022-09-04T10:27:08.505Z,25.10
2022-09-04T10:30:00.698Z,25.32
2022-09-04T10:32:58.360Z,25.51
2022-09-04T10:35:28.573Z,25.63
2022-09-04T10:38:27.337Z,26.00
2022-09-04T10:41:14.880Z,26.15
2022-09-04T10:44:03.451Z,26.41
2022-09-04T10:46:42.739Z,26.40
2022-09-04T10:49:41.823Z,26.65
2022-09-04T10:52:44.248Z,26.70
2022-09-04T10:55:21.493Z,26.71
2022-09-04T10:58:08.704Z,26.94
2022-09-04T11:00:51.079Z,26.97
2022-09-04T11:03:38.103Z,27.30
2022-09-04T11:06:39.231Z,27.55
2022-09-04T11:09:36.713Z,27.82
2022-09-04T11:12:49.296Z,27.92
2022-09-04T11:15:48.000Z,28.16
2022-09-04T11:18:45.637Z,28.42
2022-09-04T11:21:45.631Z,28.44
2022-09-04T11:24:44.279Z,28.77
2022-09-04T11:28:00.020Z,28.90
2022-09-04T11:30:48.092Z,29.22
2022-09-04T11:33:57.964Z,29.34
2022-09-04T11:36:52.675Z,29.09
2022-09-04T11:39:49.976Z,28.64
2022-09-04T11:42:32.921Z,28.86
2022-09-04T11:45:23.883Z,28.84
2022-09-04T11:48:09.801Z,28.07
2022-09-04T11:51:16.523Z,27.86
2022-09-04T11:54:10.459Z,28.46
2022-09-04T11:56:57.561Z,28.71
2022-09-04T12:00:05.925Z,28.18
2022-09-04T12:03:15.748Z,27.59
2022-09-04T12:05:56.165Z,28.68
2022-09-04T12:08:48.037Z,28.70
2022-09-04T12:11:39.890Z,28.46
2022-09-04T12:14:35.528Z,28.91
2022-09-04T12:17:25.391Z,28.05
2022-09-04T12:20:24.179Z,27.93
2022-09-04T12:23:13.819Z,27.64
2022-09-04T12:26:09.188Z,27.22
2022-09-04T12:29:17.188Z,27.02
2022-09-04T12:32:16.516Z,26.78
2022-09-04T12:35:06.812Z,26.63
2022-09-04T12:38:02.363Z,26.52
2022-09-04T12:40:35.507Z,26.53
2022-09-04T12:43:24.124Z,26.73
2022-09-04T12:46:05.938Z,26.84
2022-09-04T12:48:42.423Z,26.84
2022-09-04T12:51:13.940Z,26.71
2022-09-04T12:53:56.090Z,26.66
2022-09-04T12:56:41.397Z,26.70
2022-09-04T12:59:26.696Z,26.77
2022-09-04T13:02:04.830Z,26.70
2022-09-04T13:04:40.419Z,26.63
2022-09-04T13:07:24.277Z,26.49
2022-09-04T13:09:59.816Z,26.77
2022-09-04T13:12:39.202Z,26.70
2022-09-04T13:15:28.918Z,26.43
2022-09-04T13:18:10.504Z,26.45
2022-09-04T13:20:48.027Z,26.36
2022-09-04T13:23:36.901Z,26.31
2022-09-04T13:26:20.920Z,26.28
2022-09-04T13:28:58.272Z,26.20
2022-09-04T13:31:38.318Z,26.29
2022-09-04T13:34:18.835Z,26.20
2022-09-04T13:36:56.447Z,26.22
2022-09-04T13:39:54.374Z,26.30
2022-09-04T13:42:59.459Z,26.21
2022-09-04T13:45:29.270Z,26.22
2022-09-04T13:48:02.411Z,26.16
2022-09-04T13:50:36.967Z,26.16
2022-09-04T13:53:16.556Z,26.14
2022-09-04T13:55:50.391Z,26.10
2022-09-04T13:58:20.250Z,26.13
2022-09-04T14:00:52.799Z,26.14
2022-09-04T14:03:37.952Z,26.18
2022-09-04T14:06:11.130Z,26.22
2022-09-04T14:08:39.931Z,26.25
2022-09-04T14:11:39.306Z,26.24
2022-09-04T14:14:30.819Z,26.26
2022-09-04T14:17:00.018Z,26.28
2022-09-04T14:19:45.077Z,26.44
2022-09-04T14:22:35.064Z,26.81
2022-09-04T14:25:12.057Z,27.08
2022-09-04T14:27:48.482Z,27.09
2022-09-04T14:30:18.233Z,27.39
2022-09-04T14:33:19.718Z,27.33
2022-09-04T14:35:59.820Z,27.45
2022-09-04T14:38:54.360Z,27.54
2022-09-04T14:41:39.550Z,27.60
2022-09-04T14:44:20.401Z,27.63
2022-09-04T14:46:55.746Z,27.52
2022-09-04T14:49:27.389Z,27.69
2022-09-04T14:51:57.049Z,27.71
2022-09-04T14:54:30.076Z,27.72
2022-09-04T14:57:02.056Z,27.58
2022-09-04T14:59:35.487Z,27.58
2022-09-04T15:02:19.796Z,27.50
2022-09-04T15:04:51.497Z,27.37
2022-09-04T15:07:30.747Z,27.25
2022-09-04T15:10:15.087Z,27.10
2022-09-04T15:12:46.719Z,27.00
2022-09-04T15:15:21.194Z,27.00
2022-09-04T15:17:55.194Z,27.06
2022-09-04T15:20:27.587Z,27.01
2022-09-04T15:22:57.778Z,27.07
2022-09-04T15:25:59.181Z,27.05
2022-09-04T15:28:38.354Z,27.04
2022-09-04T15:31:15.946Z,27.06
2022-09-04T15:33:48.661Z,27.08
2022-09-04T15:36:20.147Z,27.13
2022-09-04T15:38:52.160Z,27.11
2022-09-04T15:41:28.693Z,27.07
2022-09-04T15:44:03.246Z,27.07
2022-09-04T15:46:46.281Z,26.93
2022-09-04T15:49:25.401Z,26.89
2022-09-04T15:51:57.942Z,26.89
2022-09-04T15:54:56.115Z,26.89
2022-09-04T15:57:36.014Z,26.87
2022-09-04T16:00:10.449Z,26.85
2022-09-04T16:02:54.859Z,26.80
2022-09-04T16:05:37.594Z,26.76
2022-09-04T16:08:20.912Z,26.76
2022-09-04T16:10:58.942Z,26.72
2022-09-04T16:13:41.675Z,26.67
2022-09-04T16:16:13.717Z,26.66
2022-09-04T16:18:52.186Z,26.55
2022-09-04T16:21:31.995Z,26.55
2022-09-04T16:24:13.477Z,26.58
2022-09-04T16:26:42.933Z,26.58
2022-09-04T16:29:25.803Z,26.57
2022-09-04T16:31:56.090Z,26.42
2022-09-04T16:34:27.687Z,26.47
2022-09-04T16:37:05.173Z,26.48
2022-09-04T16:39:43.012Z,26.44
2022-09-04T16:42:19.765Z,26.40
2022-09-04T16:44:58.542Z,26.50
2022-09-04T16:47:37.152Z,26.43
2022-09-04T16:50:16.871Z,26.31
2022-09-04T16:53:05.896Z,26.28
2022-09-04T16:55:45.816Z,26.29
2022-09-04T16:58:35.618Z,26.32
2022-09-04T17:01:15.418Z,26.19
2022-09-04T17:04:12.663Z,26.20
2022-09-04T17:07:02.619Z,26.07
2022-09-04T17:09:45.017Z,26.09
2022-09-04T17:12:23.620Z,25.90
2022-09-04T17:14:59.454Z,26.08
2022-09-04T17:17:32.269Z,26.06
2022-09-04T17:20:09.370Z,25.94
2022-09-04T17:28:32.761Z,26.01
2022-09-04T17:29:12.860Z,25.98
2022-09-04T17:29:14.175Z,25.91
2022-09-04T17:31:45.921Z,25.85
2022-09-04T17:39:57.329Z,25.87
2022-09-04T17:40:49.876Z,25.85
2022-09-04T17:40:56.107Z,25.81
2022-09-04T17:43:22.723Z,25.77
2022-09-04T17:46:02.192Z,25.73
2022-09-04T17:48:33.246Z,25.67
2022-09-04T17:51:05.522Z,25.58
2022-09-04T17:53:38.795Z,25.51
2022-09-04T17:56:14.921Z,25.34
2022-09-04T17:58:50.386Z,25.35
2022-09-04T18:01:25.125Z,25.29
2022-09-04T18:04:21.845Z,25.21
2022-09-04T18:06:58.705Z,25.12
2022-09-04T18:09:33.040Z,25.08
2022-09-04T18:12:11.090Z,25.02
2022-09-04T18:14:48.404Z,24.97
2022-09-04T18:17:36.367Z,24.91
2022-09-04T18:20:14.292Z,24.86
2022-09-04T18:23:18.077Z,24.57
2022-09-04T18:25:53.983Z,24.70
2022-09-04T18:28:28.404Z,24.72
2022-09-04T18:37:11.833Z,24.51
2022-09-04T18:37:24.339Z,24.55
2022-09-04T18:37:27.099Z,24.49
2022-09-04T18:39:53.033Z,24.53
2022-09-04T18:50:23.089Z,24.51
2022-09-04T18:50:34.957Z,24.38
2022-09-04T18:50:50.777Z,24.45
2022-09-04T18:51:21.120Z,24.35
2022-09-04T18:53:53.850Z,24.31
2022-09-04T18:56:28.600Z,24.19
2022-09-04T18:59:05.303Z,24.09
2022-09-04T19:01:42.145Z,24.23
2022-09-04T19:04:43.615Z,24.19
2022-09-04T19:07:18.716Z,24.16
2022-09-04T19:10:08.775Z,24.12
2022-09-04T19:12:48.063Z,24.10
2022-09-04T19:15:45.102Z,24.09
2022-09-04T19:18:25.488Z,24.10
2022-09-04T19:20:59.187Z,24.07
2022-09-04T19:23:35.580Z,23.84
2022-09-04T19:26:10.250Z,24.05
2022-09-04T19:28:52.715Z,24.06
2022-09-04T19:31:30.043Z,24.03
2022-09-04T19:34:03.155Z,23.99
2022-09-04T19:36:38.110Z,23.97
2022-09-04T19:45:57.804Z,23.88
2022-09-04T19:45:59.057Z,23.71
2022-09-04T19:46:08.070Z,23.78
2022-09-04T19:48:23.533Z,23.69
2022-09-04T19:53:21.952Z,23.66
2022-09-04T19:53:52.930Z,23.66
2022-09-04T19:56:28.886Z,23.46
2022-09-04T19:59:03.453Z,23.63
2022-09-04T20:01:45.823Z,23.53
2022-09-04T20:04:26.053Z,23.54
2022-09-04T20:06:59.216Z,23.44
2022-09-04T20:09:33.061Z,23.47
2022-09-04T20:12:10.282Z,23.45
2022-09-04T20:14:43.415Z,23.30
2022-09-04T20:17:28.395Z,23.37
2022-09-04T20:20:00.795Z,23.33
2022-09-04T20:22:36.257Z,23.19
2022-09-04T20:25:33.182Z,23.30
2022-09-04T20:28:15.140Z,23.31
2022-09-04T20:30:49.447Z,23.33
2022-09-04T20:33:22.610Z,23.32
2022-09-04T20:35:59.646Z,23.19
2022-09-04T20:38:36.013Z,23.23
2022-09-04T20:41:11.816Z,23.16
2022-09-04T20:43:55.010Z,23.14
2022-09-04T20:52:44.664Z,23.12
2022-09-04T20:52:55.881Z,23.08
2022-09-04T20:52:57.782Z,23.04
2022-09-04T20:55:46.212Z,22.99
2022-09-04T21:03:09.575Z,22.98
2022-09-04T21:03:18.287Z,22.99
2022-09-04T21:04:43.746Z,22.95
2022-09-04T21:07:23.871Z,22.95
2022-09-04T21:10:05.905Z,22.93
2022-09-04T21:12:40.341Z,22.90
2022-09-04T21:15:13.862Z,22.90
2022-09-04T21:18:18.075Z,22.90
2022-09-04T21:21:00.757Z,22.90
2022-09-04T21:24:03.437Z,22.89
2022-09-04T21:26:59.667Z,22.88
2022-09-04T21:29:42.283Z,22.87
2022-09-04T21:32:29.881Z,22.85
2022-09-04T21:35:07.648Z,22.82
2022-09-04T21:37:47.268Z,22.78
2022-09-04T21:40:51.711Z,22.74
2022-09-04T21:43:51.022Z,22.69
2022-09-04T21:46:36.538Z,22.64
2022-09-04T21:49:26.439Z,22.59
2022-09-04T21:52:10.870Z,22.59
2022-09-04T21:57:08.937Z,22.55
2022-09-04T22:02:31.849Z,22.54
2022-09-04T22:02:37.027Z,22.53
2022-09-04T22:04:14.195Z,22.50
2022-09-04T22:10:59.137Z,22.51
2022-09-04T22:13:37.507Z,22.52
2022-09-04T22:13:40.446Z,22.53
2022-09-04T22:16:26.027Z,22.50
2022-09-04T22:19:26.070Z,22.50
2022-09-04T22:22:09.197Z,22.45
2022-09-04T22:25:07.553Z,22.45
2022-09-04T22:28:08.232Z,22.47
2022-09-04T22:30:50.282Z,22.45
2022-09-04T22:34:15.606Z,22.44
2022-09-04T22:37:08.354Z,22.39
2022-09-04T22:40:01.017Z,22.39
2022-09-04T22:42:44.809Z,22.32
2022-09-04T22:45:45.527Z,22.37
2022-09-04T22:48:44.050Z,22.31
2022-09-04T22:51:30.011Z,22.31
2022-09-04T22:54:24.687Z,22.30
2022-09-04T22:56:55.887Z,22.25
2022-09-04T22:59:53.694Z,22.20
2022-09-04T23:03:06.660Z,22.16
2022-09-04T23:05:48.834Z,22.13
2022-09-04T23:13:44.816Z,22.10
2022-09-04T23:13:59.444Z,22.07
2022-09-04T23:14:38.644Z,22.05
2022-09-04T23:17:42.040Z,22.01
2022-09-04T23:26:36.739Z,22.03
2022-09-04T23:26:47.999Z,22.07
2022-09-04T23:27:20.318Z,22.06
2022-09-04T23:30:08.133Z,22.04
2022-09-04T23:33:32.121Z,22.06
2022-09-04T23:36:07.049Z,22.06
2022-09-04T23:39:01.519Z,21.98
2022-09-04T23:41:52.672Z,22.04
2022-09-04T23:44:50.802Z,22.03
2022-09-04T23:47:47.823Z,22.00
2022-09-04T23:50:31.137Z,21.98
2022-09-04T23:53:10.225Z,21.97
2022-09-04T23:55:52.019Z,21.95
2022-09-04T23:58:51.817Z,21.91
